Time;durP1;ratioP1;P1;durP2;ratioP2;P2;SDS_P1;SDS_P2;PMS_P1;PMS_P2;Temp;Humidity;BMP_temperature;BMP_pressure;BME280_temperature;BME280_humidity;BME280_pressure;Samples;Min_cycle;Max_cycle;Signal;HPM_P1;HPM_P2
2023/01/16 00:00:21;;;;;;;1.00;0.55;;;;;;;0.16;100.00;94821.50;1030033;28;20023;-67
2023/01/16 00:00:52;;;;;;;1.08;0.70;;;;;;;0.09;100.00;94820.81;1030377;28;20046;-69
2023/01/16 00:01:22;;;;;;;1.66;1.04;;;;;;;0.09;100.00;94824.19;1034526;28;20021;-68
2023/01/16 00:01:54;;;;;;;1.52;1.02;;;;;;;0.08;100.00;94825.19;1030447;28;20504;-68
2023/01/16 00:02:25;;;;;;;1.14;0.62;;;;;;;0.10;100.00;94828.34;1034038;28;20330;-68
2023/01/16 00:02:55;;;;;;;0.70;0.50;;;;;;;0.09;100.00;94824.19;1034922;28;20779;-69
2023/01/16 00:03:26;;;;;;;1.48;0.63;;;;;;;0.05;100.00;94814.53;1034632;28;20041;-68
2023/01/16 00:03:56;;;;;;;2.50;0.55;;;;;;;0.06;100.00;94819.44;1030619;28;20014;-68
2023/01/16 00:04:27;;;;;;;1.95;0.60;;;;;;;0.06;100.00;94816.09;1030274;28;20042;-68
2023/01/16 00:04:57;;;;;;;3.05;0.40;;;;;;;0.00;100.00;94804.88;1030541;28;20081;-68
2023/01/16 00:05:28;;;;;;;1.88;0.50;;;;;;;0.03;100.00;94819.88;1038097;28;20021;-64
2023/01/16 00:05:58;;;;;;;0.68;0.30;;;;;;;0.03;100.00;94813.94;1033992;28;20041;-68
2023/01/16 00:06:29;;;;;;;3.17;0.63;;;;;;;0.05;100.00;94810.16;1034321;28;20104;-68
2023/01/16 00:06:59;;;;;;;1.27;0.52;;;;;;;0.07;100.00;94809.91;1034711;28;20021;-68
2023/01/16 00:07:30;;;;;;;0.40;0.40;;;;;;;0.05;100.00;94815.31;1042501;28;20108;-67
2023/01/16 00:08:00;;;;;;;1.52;0.55;;;;;;;0.00;100.00;94812.63;1042616;28;20636;-70
2023/01/16 00:08:31;;;;;;;0.98;0.50;;;;;;;0.03;100.00;94811.38;1042495;28;20017;-69
2023/01/16 00:09:03;;;;;;;1.25;0.60;;;;;;;0.04;100.00;94808.59;1046795;28;20033;-67
2023/01/16 00:09:33;;;;;;;1.20;0.44;;;;;;;0.04;100.00;94806.00;1046374;28;20028;-68
2023/01/16 00:10:04;;;;;;;0.98;0.50;;;;;;;0.10;100.00;94806.91;1042661;28;20040;-67
2023/01/16 00:10:35;;;;;;;2.30;0.60;;;;;;;0.13;100.00;94807.25;1042754;28;20022;-68
2023/01/16 00:11:05;;;;;;;2.65;0.47;;;;;;;0.15;100.00;94800.09;1042499;28;20734;-69
2023/01/16 00:11:36;;;;;;;3.35;0.50;;;;;;;0.08;100.00;94789.09;1038575;28;20064;-67
2023/01/16 00:12:07;;;;;;;1.23;0.50;;;;;;;0.18;100.00;94804.81;1034527;28;20872;-67
2023/01/16 00:12:37;;;;;;;3.65;0.82;;;;;;;0.28;100.00;94806.06;1037359;28;20483;-70
2023/01/16 00:13:09;;;;;;;0.90;0.50;;;;;;;0.24;100.00;94803.16;1034315;28;20452;-68
2023/01/16 00:13:40;;;;;;;1.62;0.46;;;;;;;0.15;100.00;94794.94;1034593;28;20022;-67
2023/01/16 00:14:10;;;;;;;1.80;0.45;;;;;;;0.19;100.00;94805.59;1034714;28;20022;-68
2023/01/16 00:14:41;;;;;;;0.40;0.40;;;;;;;0.18;100.00;94794.50;1025947;28;20027;-68
2023/01/16 00:15:11;;;;;;;0.70;0.40;;;;;;;0.16;100.00;94801.66;1030617;28;20022;-67
2023/01/16 00:15:45;;;;;;;0.60;0.47;;;;;;;0.16;100.00;94793.13;1029708;28;20090;-70
2023/01/16 00:16:18;;;;;;;0.60;0.60;;;;;;;0.21;100.00;94799.22;1035811;28;20026;-67
2023/01/16 00:16:49;;;;;;;1.18;0.42;;;;;;;0.19;100.00;94795.28;1042365;28;20017;-69
2023/01/16 00:17:19;;;;;;;3.40;0.50;;;;;;;0.11;100.00;94786.06;1039187;28;20514;-67
2023/01/16 00:17:50;;;;;;;2.53;0.60;;;;;;;0.16;100.00;94793.13;1042313;28;20079;-69
2023/01/16 00:18:20;;;;;;;2.13;0.47;;;;;;;0.18;100.00;94789.34;1038472;28;20029;-70
2023/01/16 00:18:51;;;;;;;0.98;0.50;;;;;;;0.15;100.00;94784.63;1038388;28;20387;-68
2023/01/16 00:19:21;;;;;;;1.52;0.40;;;;;;;0.13;100.00;94785.84;1038450;28;20128;-65
2023/01/16 00:19:52;;;;;;;1.05;0.43;;;;;;;0.10;100.00;94783.69;1030297;28;20018;-69
2023/01/16 00:20:22;;;;;;;1.63;0.57;;;;;;;0.02;100.00;94777.06;1031724;28;20026;-69
2023/01/16 00:20:53;;;;;;;1.85;0.43;;;;;;;0.06;100.00;94780.78;1030321;28;20022;-67
2023/01/16 00:21:26;;;;;;;0.73;0.30;;;;;;;0.04;100.00;94782.81;1029702;28;20031;-70
2023/01/16 00:21:57;;;;;;;1.38;0.48;;;;;;;0.09;100.00;94779.56;1030427;28;20232;-68
2023/01/16 00:22:27;;;;;;;1.38;0.80;;;;;;;0.11;100.00;94777.56;1028475;28;20030;-67
2023/01/16 00:22:58;;;;;;;1.23;0.70;;;;;;;0.09;100.00;94775.19;1034352;28;20502;-70
2023/01/16 00:23:28;;;;;;;0.63;0.40;;;;;;;0.07;100.00;94769.47;1035213;28;20077;-67
2023/01/16 00:23:59;;;;;;;1.23;0.40;;;;;;;0.15;100.00;94773.50;1034621;28;20097;-68
2023/01/16 00:24:29;;;;;;;1.88;0.45;;;;;;;0.23;100.00;94776.56;1030902;28;20019;-68
2023/01/16 00:25:00;;;;;;;2.35;0.68;;;;;;;0.34;100.00;94774.25;1038480;28;20434;-67
2023/01/16 00:25:30;;;;;;;1.77;0.50;;;;;;;0.40;100.00;94776.72;1036712;28;20044;-67
2023/01/16 00:26:05;;;;;;;5.72;0.50;;;;;;;0.40;100.00;94783.66;1042653;28;20020;-65
2023/01/16 00:26:35;;;;;;;0.66;0.50;;;;;;;0.38;100.00;94770.19;1046499;28;20639;-68
2023/01/16 00:27:05;;;;;;;1.80;0.60;;;;;;;0.46;100.00;94767.28;1038574;28;20029;-67
2023/01/16 00:27:36;;;;;;;5.30;0.73;;;;;;;0.40;100.00;94765.59;1034099;28;20044;-68
2023/01/16 00:28:16;;;;;;;1.02;0.50;;;;;;;0.47;100.00;94763.72;1038254;28;20060;-68
2023/01/16 00:28:46;;;;;;;2.20;0.50;;;;;;;0.35;100.00;94758.53;1038720;28;20025;-69
2023/01/16 00:29:17;;;;;;;1.63;0.50;;;;;;;0.45;100.00;94763.13;1039657;28;20060;-68
2023/01/16 00:29:47;;;;;;;1.55;0.40;;;;;;;0.41;100.00;94756.84;1037736;28;20020;-70
2023/01/16 00:30:19;;;;;;;2.65;0.40;;;;;;;0.40;100.00;94755.25;1030363;28;20030;-68
2023/01/16 00:30:49;;;;;;;1.72;0.60;;;;;;;0.37;100.00;94758.28;1026446;28;20035;-69
2023/01/16 00:31:23;;;;;;;1.73;0.68;;;;;;;0.39;100.00;94757.06;1026552;28;20019;-67
2023/01/16 00:31:53;;;;;;;0.50;0.32;;;;;;;0.40;100.00;94763.00;1034041;28;20018;-68
2023/01/16 00:32:23;;;;;;;1.10;0.52;;;;;;;0.38;100.00;94762.47;1034947;28;20605;-68
2023/01/16 00:32:54;;;;;;;0.50;0.40;;;;;;;0.39;100.00;94758.84;1039289;28;20017;-68
2023/01/16 00:33:25;;;;;;;0.63;0.30;;;;;;;0.38;100.00;94762.47;1042671;28;20500;-68
2023/01/16 00:33:55;;;;;;;2.65;0.57;;;;;;;0.39;100.00;94764.03;1046711;28;20095;-68
2023/01/16 00:34:26;;;;;;;3.17;0.50;;;;;;;0.29;100.00;94758.63;1042321;28;20024;-68
2023/01/16 00:34:56;;;;;;;5.32;0.65;;;;;;;0.32;100.00;94760.75;1038469;28;20021;-69
2023/01/16 00:35:27;;;;;;;2.15;0.40;;;;;;;0.42;100.00;94761.78;1035312;28;20061;-66
2023/01/16 00:35:58;;;;;;;1.25;0.60;;;;;;;0.44;100.00;94766.72;1029999;28;20030;-68
2023/01/16 00:36:28;;;;;;;1.83;0.50;;;;;;;0.46;100.00;94755.16;1034077;28;20037;-67
2023/01/16 00:36:59;;;;;;;2.28;0.50;;;;;;;0.45;100.00;94755.38;1034639;28;20088;-69
2023/01/16 00:37:29;;;;;;;0.30;0.30;;;;;;;0.36;100.00;94741.25;1034162;28;20021;-68
2023/01/16 00:38:00;;;;;;;0.95;0.73;;;;;;;0.45;100.00;94752.81;1038394;28;20026;-69
2023/01/16 00:38:32;;;;;;;0.95;0.55;;;;;;;0.44;100.00;94753.81;1034230;28;20029;-67
2023/01/16 00:39:02;;;;;;;3.42;0.40;;;;;;;0.48;100.00;94747.22;1034637;28;20033;-69
2023/01/16 00:39:33;;;;;;;1.80;0.28;;;;;;;0.59;100.00;94748.22;1038859;28;20063;-69
2023/01/16 00:40:04;;;;;;;0.70;0.40;;;;;;;0.69;100.00;94748.44;1042578;28;20029;-66
2023/01/16 00:40:34;;;;;;;2.48;0.60;;;;;;;0.70;100.00;94747.41;1038318;28;20053;-69
2023/01/16 00:41:05;;;;;;;2.33;0.40;;;;;;;0.74;100.00;94745.16;1038827;28;20045;-68
2023/01/16 00:41:36;;;;;;;1.75;0.47;;;;;;;0.72;100.00;94744.63;1034287;28;20040;-68
2023/01/16 00:42:06;;;;;;;1.55;0.50;;;;;;;0.79;100.00;94745.28;1031670;28;20035;-67
2023/01/16 00:42:37;;;;;;;1.58;0.45;;;;;;;0.73;100.00;94744.38;1030144;28;20034;-68
2023/01/16 00:43:07;;;;;;;1.88;0.52;;;;;;;0.63;100.00;94729.47;1026068;28;20597;-68
2023/01/16 00:43:38;;;;;;;0.52;0.32;;;;;;;0.72;100.00;94749.78;1026401;28;20117;-69
2023/01/16 00:44:08;;;;;;;4.07;0.68;;;;;;;0.74;100.00;94734.84;1030269;28;20357;-67
2023/01/16 00:44:39;;;;;;;4.60;0.50;;;;;;;0.78;100.00;94733.41;1030360;28;20037;-68
2023/01/16 00:45:09;;;;;;;0.93;0.32;;;;;;;0.77;100.00;94734.41;1038644;28;20056;-67
2023/01/16 00:45:40;;;;;;;2.00;0.40;;;;;;;0.70;100.00;94730.16;1033556;28;20144;-67
2023/01/16 00:46:11;;;;;;;1.20;0.17;;;;;;;0.70;100.00;94730.16;1030181;28;20035;-70
2023/01/16 00:46:41;;;;;;;0.95;0.40;;;;;;;0.79;100.00;94735.75;1034319;28;20068;-66
2023/01/16 00:47:12;;;;;;;2.35;0.47;;;;;;;0.70;100.00;94726.75;1030155;28;20042;-69
2023/01/16 00:47:42;;;;;;;2.80;0.50;;;;;;;0.70;100.00;94734.50;1030570;28;20028;-67
2023/01/16 00:48:13;;;;;;;1.65;0.30;;;;;;;0.69;100.00;94738.13;1030136;28;20054;-70
2023/01/16 00:48:44;;;;;;;0.70;0.40;;;;;;;0.68;100.00;94736.56;1034203;28;20029;-69
2023/01/16 00:49:14;;;;;;;1.75;0.47;;;;;;;0.64;100.00;94736.22;1038755;28;20037;-67
2023/01/16 00:49:45;;;;;;;0.45;0.30;;;;;;;0.61;100.00;94726.34;1034394;28;20092;-67
2023/01/16 00:50:15;;;;;;;1.52;0.60;;;;;;;0.73;100.00;94733.28;1042294;28;20032;-69
2023/01/16 00:50:46;;;;;;;1.65;0.43;;;;;;;0.68;100.00;94734.75;1038169;28;20479;-68
2023/01/16 00:51:16;;;;;;;0.98;0.38;;;;;;;0.67;100.00;94730.59;1038443;28;20095;-67
2023/01/16 00:51:47;;;;;;;0.30;0.30;;;;;;;0.80;100.00;94736.53;1034377;28;20113;-66
2023/01/16 00:52:17;;;;;;;1.20;0.38;;;;;;;0.74;100.00;94733.06;1035474;28;20058;-67
2023/01/16 00:52:48;;;;;;;3.20;0.60;;;;;;;0.72;100.00;94727.34;1038202;28;20464;-68
2023/01/16 00:53:18;;;;;;;1.95;0.50;;;;;;;0.65;100.00;94718.94;1038618;28;20117;-67
2023/01/16 00:53:49;;;;;;;2.45;0.55;;;;;;;0.76;100.00;94730.25;1034274;28;20052;-67
2023/01/16 00:54:19;;;;;;;0.30;0.30;;;;;;;0.81;100.00;94731.16;1030032;28;20117;-67
2023/01/16 00:54:50;;;;;;;0.63;0.40;;;;;;;0.75;100.00;94734.63;1030381;28;20133;-67
2023/01/16 00:55:20;;;;;;;2.25;0.63;;;;;;;0.73;100.00;94733.28;1030251;28;20014;-67
2023/01/16 00:55:51;;;;;;;1.63;0.30;;;;;;;0.72;100.00;94731.72;1035286;28;20033;-67
2023/01/16 00:56:22;;;;;;;0.50;0.28;;;;;;;0.70;100.00;94730.16;1038258;28;20025;-68
2023/01/16 00:56:52;;;;;;;0.60;0.45;;;;;;;0.74;100.00;94729.69;1038415;28;20030;-68
2023/01/16 00:57:23;;;;;;;3.42;0.85;;;;;;;0.70;100.00;94730.16;1041147;28;20139;-69
2023/01/16 00:57:53;;;;;;;1.38;0.55;;;;;;;0.66;100.00;94723.84;1038438;28;20582;-68
2023/01/16 00:58:24;;;;;;;2.65;0.98;;;;;;;0.64;100.00;94714.78;1038128;28;20025;-68
2023/01/16 00:58:54;;;;;;;0.95;0.38;;;;;;;0.73;100.00;94728.13;1030276;28;20034;-69
2023/01/16 00:59:25;;;;;;;2.17;1.50;;;;;;;0.68;100.00;94716.69;1025798;28;20541;-67
2023/01/16 00:59:55;;;;;;;1.10;0.47;;;;;;;0.70;100.00;94730.16;1026477;28;20062;-69
2023/01/16 01:00:26;;;;;;;1.75;0.60;;;;;;;0.72;100.00;94724.75;1030322;28;20018;-68
2023/01/16 01:00:56;;;;;;;0.90;0.30;;;;;;;0.74;100.00;94727.91;1038036;28;20031;-68
2023/01/16 01:01:27;;;;;;;0.30;0.30;;;;;;;0.74;100.00;94724.50;1042733;28;20017;-68
2023/01/16 01:01:57;;;;;;;1.05;0.32;;;;;;;0.69;100.00;94718.25;1046511;28;20024;-69
2023/01/16 01:02:28;;;;;;;2.47;0.40;;;;;;;0.71;100.00;94725.78;1042220;28;20075;-67
2023/01/16 01:02:58;;;;;;;0.35;0.30;;;;;;;0.72;100.00;94716.22;1038346;28;20032;-69
2023/01/16 01:03:29;;;;;;;2.10;0.40;;;;;;;0.73;100.00;94712.63;1038168;28;20048;-67
2023/01/16 01:03:59;;;;;;;1.38;0.40;;;;;;;0.67;100.00;94714.31;1034525;28;20033;-68
2023/01/16 01:04:30;;;;;;;0.32;0.32;;;;;;;0.60;100.00;94711.06;1033961;28;20169;-67
2023/01/16 01:05:00;;;;;;;2.47;0.25;;;;;;;0.64;100.00;94715.56;1034070;28;20026;-68
2023/01/16 01:05:34;;;;;;;0.77;0.60;;;;;;;0.64;100.00;94714.78;1033822;28;20036;-69
2023/01/16 01:06:08;;;;;;;0.80;0.48;;;;;;;0.62;100.00;94715.00;1031650;28;20089;-68
2023/01/16 01:06:39;;;;;;;1.54;0.44;;;;;;;0.58;100.00;94716.47;1034430;28;20014;-69
2023/01/16 01:07:09;;;;;;;3.85;0.68;;;;;;;0.60;100.00;94714.41;1037990;28;20025;-68
2023/01/16 01:07:40;;;;;;;1.40;0.30;;;;;;;0.71;100.00;94707.72;1038042;28;20017;-68
2023/01/16 01:08:10;;;;;;;0.52;0.40;;;;;;;0.66;100.00;94705.78;1038502;28;20038;-69
2023/01/16 01:08:41;;;;;;;1.67;0.30;;;;;;;0.67;100.00;94709.94;1042376;28;20025;-67
2023/01/16 01:09:11;;;;;;;3.03;0.47;;;;;;;0.67;100.00;94715.13;1046353;28;20025;-68
2023/01/16 01:09:42;;;;;;;1.13;0.50;;;;;;;0.64;100.00;94715.56;1042461;28;20028;-67
2023/01/16 01:10:12;;;;;;;1.70;0.40;;;;;;;0.64;100.00;94712.19;1038411;28;20781;-67
2023/01/16 01:10:43;;;;;;;1.85;0.40;;;;;;;0.59;100.00;94705.13;1038235;28;20104;-68
2023/01/16 01:11:14;;;;;;;1.15;0.50;;;;;;;0.62;100.00;94707.25;1034252;28;20072;-67
2023/01/16 01:11:44;;;;;;;2.42;0.50;;;;;;;0.59;100.00;94706.91;1034042;28;20057;-68
2023/01/16 01:12:15;;;;;;;2.72;0.50;;;;;;;0.56;100.00;94709.94;1034408;28;20069;-68
2023/01/16 01:12:45;;;;;;;1.20;0.45;;;;;;;0.55;100.00;94704.00;1037448;28;20117;-68
2023/01/16 01:13:16;;;;;;;2.90;0.50;;;;;;;0.55;100.00;94701.41;1042556;28;20088;-67
2023/01/16 01:13:46;;;;;;;1.08;0.43;;;;;;;0.55;100.00;94701.41;1050812;28;20027;-68
2023/01/16 01:14:17;;;;;;;0.90;0.50;;;;;;;0.53;100.00;94703.44;1042024;28;20021;-68
2023/01/16 01:14:47;;;;;;;0.35;0.32;;;;;;;0.52;100.00;94704.44;1038193;28;20029;-68
2023/01/16 01:15:17;;;;;;;1.52;0.45;;;;;;;0.56;100.00;94705.56;1034289;28;20104;-68
2023/01/16 01:15:48;;;;;;;0.40;0.40;;;;;;;0.55;100.00;94705.81;1033564;28;20510;-69
2023/01/16 01:16:18;;;;;;;0.43;0.40;;;;;;;0.52;100.00;94707.03;1046573;28;20017;-68
2023/01/16 01:16:49;;;;;;;3.03;0.68;;;;;;;0.53;100.00;94708.59;1038115;28;20021;-69
2023/01/16 01:17:19;;;;;;;1.65;0.50;;;;;;;0.61;100.00;94703.09;1033928;28;20138;-67
2023/01/16 01:17:50;;;;;;;0.80;0.45;;;;;;;0.58;100.00;94698.41;1034566;28;20478;-69
2023/01/16 01:18:20;;;;;;;1.58;0.30;;;;;;;0.61;100.00;94707.50;1038677;28;20845;-68
2023/01/16 01:18:51;;;;;;;1.15;0.40;;;;;;;0.53;100.00;94695.69;1042609;28;20017;-70
2023/01/16 01:19:21;;;;;;;1.08;0.40;;;;;;;0.57;100.00;94693.44;1042637;28;20075;-66
2023/01/16 01:19:52;;;;;;;7.38;0.50;;;;;;;0.57;100.00;94699.41;1042659;28;20059;-68
2023/01/16 01:20:22;;;;;;;4.57;0.50;;;;;;;0.54;100.00;94699.88;1038425;28;20095;-68
2023/01/16 01:20:53;;;;;;;2.92;0.45;;;;;;;0.51;100.00;94702.88;1038498;28;20044;-67
2023/01/16 01:21:23;;;;;;;0.50;0.30;;;;;;;0.51;100.00;94695.16;1038089;28;20091;-69
2023/01/16 01:21:54;;;;;;;1.33;0.28;;;;;;;0.46;100.00;94702.75;1038720;28;20021;-68
2023/01/16 01:22:26;;;;;;;1.90;0.40;;;;;;;0.43;100.00;94701.41;1046617;28;20028;-68
2023/01/16 01:22:56;;;;;;;3.10;0.40;;;;;;;0.47;100.00;94704.34;1042315;28;20013;-69
2023/01/16 01:23:26;;;;;;;1.02;0.30;;;;;;;0.39;100.00;94687.41;1042533;28;20727;-68
2023/01/16 01:23:57;;;;;;;0.85;0.50;;;;;;;0.45;100.00;94696.03;1038176;28;20048;-68
2023/01/16 01:24:27;;;;;;;0.80;0.35;;;;;;;0.42;100.00;94696.50;1034203;28;20061;-69
2023/01/16 01:24:58;;;;;;;0.40;0.30;;;;;;;0.45;100.00;94694.25;1034048;28;20021;-68
2023/01/16 01:25:28;;;;;;;1.10;0.65;;;;;;;0.43;100.00;94698.06;1040814;28;20029;-68
2023/01/16 01:26:05;;;;;;;4.57;0.40;;;;;;;0.40;100.00;94688.19;1038141;28;20064;-68
2023/01/16 01:26:35;;;;;;;0.78;0.40;;;;;;;0.38;100.00;94685.84;1033880;28;20021;-68
2023/01/16 01:27:06;;;;;;;1.48;0.30;;;;;;;0.50;100.00;94693.56;1030103;28;20022;-69
2023/01/16 01:27:36;;;;;;;2.85;0.68;;;;;;;0.51;100.00;94700.31;1033012;28;20018;-68
2023/01/16 01:28:07;;;;;;;0.68;0.38;;;;;;;0.50;100.00;94703.09;1037843;28;20033;-69
2023/01/16 01:28:37;;;;;;;0.50;0.50;;;;;;;0.45;100.00;94693.47;1034411;28;20085;-68
2023/01/16 01:29:08;;;;;;;0.90;0.40;;;;;;;0.43;100.00;94692.88;1042341;28;20044;-68
2023/01/16 01:29:38;;;;;;;1.27;0.40;;;;;;;0.41;100.00;94693.13;1042943;28;20030;-69
2023/01/16 01:30:09;;;;;;;0.38;0.30;;;;;;;0.42;100.00;94701.66;1042529;28;20021;-67
2023/01/16 01:30:40;;;;;;;1.56;0.52;;;;;;;0.39;100.00;94691.78;1035556;28;20112;-68
2023/01/16 01:31:12;;;;;;;0.75;0.50;;;;;;;0.38;100.00;94690.22;1030204;28;20137;-69
2023/01/16 01:31:42;;;;;;;1.48;0.34;;;;;;;0.39;100.00;94702.88;1029889;28;20562;-69
2023/01/16 01:32:13;;;;;;;2.50;0.43;;;;;;;0.38;100.00;94701.31;1034131;28;20019;-68
2023/01/16 01:32:43;;;;;;;1.95;0.38;;;;;;;0.36;100.00;94698.16;1030492;28;20022;-68
2023/01/16 01:33:13;;;;;;;0.45;0.40;;;;;;;0.35;100.00;94695.81;1034332;28;20018;-68
2023/01/16 01:33:44;;;;;;;1.65;0.30;;;;;;;0.34;100.00;94696.84;1044652;28;20494;-68
2023/01/16 01:34:14;;;;;;;2.10;0.50;;;;;;;0.33;100.00;94695.25;1038389;28;20017;-69
2023/01/16 01:34:45;;;;;;;3.70;0.40;;;;;;;0.34;100.00;94694.25;1038149;28;20072;-68
2023/01/16 01:35:17;;;;;;;2.08;0.50;;;;;;;0.36;100.00;94689.63;1038117;28;20018;-68
2023/01/16 01:35:47;;;;;;;1.46;0.40;;;;;;;0.37;100.00;94689.44;1033606;28;20045;-68
2023/01/16 01:36:18;;;;;;;2.38;0.43;;;;;;;0.39;100.00;94684.81;1038516;28;20026;-68
2023/01/16 01:36:48;;;;;;;1.88;0.35;;;;;;;0.39;100.00;94676.28;1034276;28;20025;-68
2023/01/16 01:37:19;;;;;;;0.57;0.30;;;;;;;0.38;100.00;94680.66;1033999;28;20034;-70
2023/01/16 01:37:50;;;;;;;3.45;0.80;;;;;;;0.39;100.00;94677.06;1033945;28;20030;-68
2023/01/16 01:38:20;;;;;;;0.42;0.30;;;;;;;0.40;100.00;94683.00;1034708;28;20026;-68
2023/01/16 01:38:52;;;;;;;0.82;0.38;;;;;;;0.39;100.00;94679.66;1046460;28;20040;-69
2023/01/16 01:39:23;;;;;;;0.20;0.20;;;;;;;0.35;100.00;94686.28;1042347;28;20394;-69
2023/01/16 01:39:53;;;;;;;2.08;0.32;;;;;;;0.34;100.00;94674.41;1038339;28;20044;-68
2023/01/16 01:40:24;;;;;;;0.55;0.40;;;;;;;0.36;100.00;94681.91;1032133;28;20777;-67
2023/01/16 01:40:54;;;;;;;3.03;0.40;;;;;;;0.28;100.00;94669.34;1034428;28;20060;-68
2023/01/16 01:41:25;;;;;;;1.13;0.50;;;;;;;0.34;100.00;94684.72;1029978;28;20086;-68
2023/01/16 01:42:41;;;;;;;1.70;0.40;;;;;;;0.31;100.00;94676.66;1026279;28;20451;-67
2023/01/16 01:42:51;;;;;;;1.17;0.35;;;;;;;0.31;100.00;94671.47;1029959;28;20443;-67
2023/01/16 01:43:37;;;;;;;2.60;0.40;;;;;;;0.29;100.00;94670.91;1037944;28;20029;-69
2023/01/16 01:44:45;;;;;;;1.34;0.44;;;;;;;0.32;100.00;94671.25;1040508;28;20029;-68
2023/01/16 01:45:26;;;;;;;0.54;0.20;;;;;;;0.17;100.00;94647.72;1040358;28;20449;-68
2023/01/16 01:45:56;;;;;;;;;;;;;;;0.31;100.00;94669.69;1043388;28;20107;-67
2023/01/16 01:46:26;;;;;;;;;;;;;;;0.33;100.00;94662.50;1043888;28;19912;-69
2023/01/16 01:46:57;;;;;;;1.50;0.40;;;;;;;0.30;100.00;94662.94;1043238;28;20542;-70
2023/01/16 01:47:37;;;;;;;0.75;0.55;;;;;;;0.30;100.00;94664.72;1034732;28;20025;-67
2023/01/16 01:48:13;;;;;;;0.57;0.43;;;;;;;0.33;100.00;94666.88;1030935;28;20034;-68
2023/01/16 01:48:43;;;;;;;1.90;0.42;;;;;;;0.31;100.00;94653.44;1032783;28;20033;-68
2023/01/16 01:49:25;;;;;;;0.60;0.30;;;;;;;0.34;100.00;94663.28;1035116;28;20052;-68
2023/01/16 01:49:56;;;;;;;1.36;0.60;;;;;;;0.32;100.00;94658.34;1030871;28;20037;-68
2023/01/16 01:50:44;;;;;;;1.17;0.47;;;;;;;0.36;100.00;94666.41;1030923;28;20033;-68
2023/01/16 01:51:21;;;;;;;0.36;0.30;;;;;;;0.35;100.00;94659.69;1039121;28;20025;-68
2023/01/16 01:51:52;;;;;;;1.36;0.38;;;;;;;0.30;100.00;94651.84;1038968;28;20079;-68
2023/01/16 01:52:22;;;;;;;1.15;0.35;;;;;;;0.32;100.00;94657.56;1030675;28;20432;-68
2023/01/16 01:52:53;;;;;;;1.85;0.40;;;;;;;0.30;100.00;94657.00;1038729;28;20045;-68
2023/01/16 01:54:02;;;;;;;4.28;0.52;;;;;;;0.27;100.00;94657.44;1035557;28;20350;-70
2023/01/16 01:54:40;;;;;;;3.04;0.40;;;;;;;0.31;100.00;94653.44;1039362;28;20025;-68
2023/01/16 01:55:11;;;;;;;1.16;0.50;;;;;;;0.26;100.00;94651.50;1030898;28;20061;-68
2023/01/16 01:55:42;;;;;;;1.80;0.32;;;;;;;0.24;100.00;94643.22;1027433;28;20015;-69
2023/01/16 01:57:08;;;;;;;4.63;0.43;;;;;;;0.36;100.00;94653.53;1035468;28;20486;-68
2023/01/16 01:57:41;;;;;;;2.54;0.64;;;;;;;0.30;100.00;94652.63;1029889;28;20025;-68
2023/01/16 01:58:15;;;;;;;2.56;0.34;;;;;;;0.30;100.00;94651.84;1030220;28;20209;-68
2023/01/16 01:58:46;;;;;;;1.40;0.42;;;;;;;0.22;100.00;94637.50;1030972;28;20812;-70
2023/01/16 01:59:27;;;;;;;1.76;0.36;;;;;;;0.21;100.00;94639.28;1030333;28;20065;-68
2023/01/16 02:00:00;;;;;;;1.28;0.48;;;;;;;0.23;100.00;94637.28;1019041;29;20139;-69
2023/01/16 02:00:31;;;;;;;1.32;0.30;;;;;;;0.26;100.00;94640.41;1032767;28;20062;-68
2023/01/16 02:01:01;;;;;;;2.42;0.40;;;;;;;0.16;100.00;94631.44;1036576;28;20054;-70
2023/01/16 02:01:32;;;;;;;0.52;0.40;;;;;;;0.26;100.00;94643.75;1040365;28;20033;-68
2023/01/16 02:02:03;;;;;;;1.13;0.40;;;;;;;0.21;100.00;94631.56;1030925;28;20034;-69
2023/01/16 02:02:35;;;;;;;2.62;0.36;;;;;;;0.23;100.00;94637.28;1038949;28;20103;-67
2023/01/16 02:03:11;;;;;;;0.68;0.30;;;;;;;0.22;100.00;94640.84;1038927;28;20422;-69
2023/01/16 02:03:51;;;;;;;0.94;0.40;;;;;;;0.15;100.00;94629.88;1034867;28;20049;-67
2023/01/16 02:04:26;;;;;;;0.80;0.22;;;;;;;0.21;100.00;94634.13;1032306;28;20276;-68
2023/01/16 02:04:56;;;;;;;0.30;0.30;;;;;;;0.25;100.00;94636.25;1034686;28;20025;-67
2023/01/16 02:05:29;;;;;;;2.20;0.32;;;;;;;0.28;100.00;94630.66;1034613;28;20018;-69
2023/01/16 02:06:00;;;;;;;0.36;0.26;;;;;;;0.37;100.00;94637.84;1028614;28;20022;-67
2023/01/16 02:06:44;;;;;;;2.18;0.52;;;;;;;0.34;100.00;94627.19;1030969;28;20042;-68
2023/01/16 02:07:16;;;;;;;0.26;0.20;;;;;;;0.36;100.00;94625.91;1033042;28;20022;-66
2023/01/16 02:07:46;;;;;;;2.30;0.44;;;;;;;0.27;100.00;94627.28;1039641;28;20661;-68
2023/01/16 02:08:18;;;;;;;1.85;0.50;;;;;;;0.28;100.00;94628.84;1039385;28;20021;-67
2023/01/16 02:08:49;;;;;;;0.24;0.20;;;;;;;0.20;100.00;94611.94;1038886;28;20092;-68
2023/01/16 02:09:19;;;;;;;1.85;0.50;;;;;;;0.25;100.00;94620.78;1034661;28;20110;-68
2023/01/16 02:09:52;;;;;;;0.63;0.50;;;;;;;0.24;100.00;94620.00;1026945;28;20030;-67
2023/01/16 02:10:44;;;;;;;1.66;0.40;;;;;;;0.31;100.00;94618.09;1026656;28;20559;-68
2023/01/16 02:11:27;;;;;;;0.52;0.32;;;;;;;0.30;100.00;94624.25;1030100;28;20023;-68
2023/01/16 02:12:01;;;;;;;0.40;0.20;;;;;;;0.37;100.00;94616.38;1035487;28;20036;-68
2023/01/16 02:12:31;;;;;;;0.98;0.46;;;;;;;0.37;100.00;94616.38;1039084;28;20071;-67
2023/01/16 02:13:02;;;;;;;2.05;0.40;;;;;;;0.35;100.00;94623.56;1042698;28;20040;-67
2023/01/16 02:13:32;;;;;;;0.73;0.32;;;;;;;0.40;100.00;94610.78;1032921;28;20030;-68
2023/01/16 02:14:07;;;;;;;2.92;0.70;;;;;;;0.39;100.00;94602.25;1034844;28;20029;-68
2023/01/16 02:14:40;;;;;;;1.16;0.50;;;;;;;0.40;100.00;94606.41;1034882;28;20042;-69
2023/01/16 02:15:10;;;;;;;2.10;0.30;;;;;;;0.43;100.00;94620.63;1038999;28;20888;-69
2023/01/16 02:19:14;;;;;;;2.25;1.05;;;;;;;0.49;100.00;94614.56;1037253;28;20028;-67
2023/01/16 02:19:17;;;;;;;0.38;0.22;;;;;;;0.46;100.00;94604.72;1043054;28;20167;-69
2023/01/16 02:20:08;;;;;;;0.78;0.30;;;;;;;0.49;100.00;94613.78;1035373;28;20033;-68
2023/01/16 02:20:46;;;;;;;2.30;0.42;;;;;;;0.45;100.00;94611.66;1036105;28;20128;-68
2023/01/16 02:21:26;;;;;;;3.12;0.46;;;;;;;0.47;100.00;94611.47;1039384;28;20480;-69
2023/01/16 02:22:17;;;;;;;4.30;0.40;;;;;;;0.47;100.00;94606.28;1043166;28;20029;-69
2023/01/16 02:22:56;;;;;;;0.74;0.32;;;;;;;0.51;100.00;94607.41;1043348;28;20032;-68
2023/01/16 02:23:53;;;;;;;0.70;0.32;;;;;;;0.48;100.00;94607.84;1039132;28;20032;-69
2023/01/16 02:24:39;;;;;;;0.84;0.40;;;;;;;0.46;100.00;94602.13;1040153;28;20045;-69
2023/01/16 02:25:37;;;;;;;0.42;0.40;;;;;;;0.48;100.00;94610.44;1039579;28;20021;-68
2023/01/16 02:26:55;;;;;;;0.96;0.40;;;;;;;0.50;100.00;94592.91;1037073;28;20036;-67
2023/01/16 02:27:37;;;;;;;0.68;0.22;;;;;;;0.44;100.00;94601.59;1035506;28;20029;-67
2023/01/16 02:28:38;;;;;;;1.46;0.40;;;;;;;0.43;100.00;94605.16;1034811;28;20061;-67
2023/01/16 02:29:08;;;;;;;3.65;0.40;;;;;;;0.42;100.00;94603.59;1032807;28;20547;-68
2023/01/16 02:29:51;;;;;;;0.30;0.30;;;;;;;0.43;100.00;94594.84;1033883;28;20023;-68
2023/01/16 02:30:28;;;;;;;0.22;0.18;;;;;;;0.41;100.00;94600.25;1035559;28;20033;-68
2023/01/16 02:31:35;;;;;;;1.02;0.48;;;;;;;0.38;100.00;94594.75;1038273;28;20037;-68
2023/01/16 02:32:10;;;;;;;1.04;0.30;;;;;;;0.32;100.00;94600.81;1043125;28;20021;-67
2023/01/16 02:32:51;;;;;;;0.38;0.20;;;;;;;0.28;100.00;94600.47;1043821;28;20032;-67
2023/01/16 02:33:44;;;;;;;1.58;0.30;;;;;;;0.28;100.00;94592.75;1039540;28;20057;-68
2023/01/16 02:34:36;;;;;;;1.66;0.30;;;;;;;0.30;100.00;94579.59;1032574;28;20598;-70
2023/01/16 02:36:03;;;;;;;1.14;0.50;;;;;;;0.26;100.00;94583.66;1037314;28;20026;-69
2023/01/16 02:37:01;;;;;;;2.84;0.38;;;;;;;0.26;100.00;94579.28;1039350;28;20076;-67
2023/01/16 02:37:35;;;;;;;1.76;0.46;;;;;;;0.26;100.00;94575.91;1035236;28;20022;-68
2023/01/16 02:38:46;;;;;;;1.90;0.50;;;;;;;0.20;100.00;94577.59;1035821;28;20042;-67
2023/01/16 02:39:25;;;;;;;0.68;0.40;;;;;;;0.18;100.00;94575.25;1035647;28;20030;-70
2023/01/16 02:40:04;;;;;;;2.18;0.70;;;;;;;0.15;100.00;94580.09;1031619;28;20411;-68
2023/01/16 02:40:41;;;;;;;2.42;0.40;;;;;;;0.11;100.00;94574.59;1035266;28;20029;-68
2023/01/16 02:41:41;;;;;;;1.12;0.64;;;;;;;0.11;100.00;94574.59;1035733;28;20026;-67
2023/01/16 02:42:32;;;;;;;1.48;0.50;;;;;;;0.19;100.00;94570.88;1035037;28;20051;-68